Time;durP1;ratioP1;P1;durP2;ratioP2;P2;SDS_P1;SDS_P2;PMS_P1;PMS_P2;Temp;Humidity;BMP_temperature;BMP_pressure;BME280_temperature;BME280_humidity;BME280_pressure;Samples;Min_cycle;Max_cycle;Signal;HPM_P1;HPM_P2
2023/12/01 00:02:24;;;;;;;49.77;24.20;;;0.10;99.90;;;;;;6310438;22;20054;-89
2023/12/01 00:04:50;;;;;;;55.77;24.03;;;0.10;99.90;;;;;;6310469;22;20033;-84
2023/12/01 00:07:16;;;;;;;56.27;24.53;;;0.10;99.90;;;;;;6311501;22;20365;-89
2023/12/01 00:09:42;;;;;;;56.43;25.33;;;0.10;99.90;;;;;;6287429;22;20034;-88
2023/12/01 00:12:08;;;;;;;55.00;25.77;;;0.10;99.90;;;;;;6286395;22;20097;-88
2023/12/01 00:14:33;;;;;;;58.17;25.83;;;0.10;99.90;;;;;;6287652;22;20019;-88
2023/12/01 00:17:00;;;;;;;55.43;24.67;;;0.10;99.90;;;;;;6312529;22;20346;-87
2023/12/01 00:19:26;;;;;;;53.83;25.80;;;0.00;99.90;;;;;;6313090;22;20025;-89
2023/12/01 00:21:51;;;;;;;56.33;25.43;;;0.10;99.90;;;;;;6287557;22;20014;-90
2023/12/01 00:24:17;;;;;;;50.33;23.73;;;0.10;99.90;;;;;;6289985;22;20021;-89
2023/12/01 00:26:45;;;;;;;48.37;23.13;;;0.10;99.90;;;;;;6290267;22;20029;-90
2023/12/01 00:29:11;;;;;;;48.43;22.67;;;0.10;99.90;;;;;;6312583;22;20023;-89
2023/12/01 00:31:37;;;;;;;49.70;23.23;;;0.20;99.90;;;;;;6313247;22;20014;-90
2023/12/01 00:34:03;;;;;;;43.37;22.50;;;0.20;99.90;;;;;;6261268;22;20073;-90
2023/12/01 00:36:28;;;;;;;44.50;22.57;;;0.20;99.90;;;;;;6313233;22;20475;-90
2023/12/01 00:38:54;;;;;;;50.20;23.57;;;0.10;99.90;;;;;;6286045;22;20026;-89
2023/12/01 00:41:20;;;;;;;44.30;22.23;;;0.10;99.90;;;;;;6286446;22;20073;-89
2023/12/01 00:43:45;;;;;;;41.20;20.87;;;0.10;99.90;;;;;;6313068;22;20667;-89
2023/12/01 00:46:11;;;;;;;44.67;22.07;;;0.00;99.90;;;;;;6285437;22;20102;-88
2023/12/01 00:48:37;;;;;;;40.30;20.43;;;0.00;99.90;;;;;;6287093;22;20018;-89
2023/12/01 00:51:03;;;;;;;40.93;21.67;;;-0.10;99.90;;;;;;6312057;22;20022;-89
2023/12/01 00:53:29;;;;;;;44.43;22.30;;;0.00;99.90;;;;;;6313349;22;20593;-87
2023/12/01 00:55:55;;;;;;;43.23;22.40;;;-0.10;99.90;;;;;;6312624;22;20018;-89
2023/12/01 00:58:21;;;;;;;41.77;21.27;;;-0.10;99.90;;;;;;6285790;22;20539;-87
2023/12/01 01:00:46;;;;;;;40.30;21.33;;;-0.20;99.90;;;;;;6287766;22;20019;-88
2023/12/01 01:03:12;;;;;;;42.87;22.07;;;-0.20;99.90;;;;;;6312707;22;20027;-89
2023/12/01 01:05:38;;;;;;;48.27;23.40;;;-0.30;99.90;;;;;;6313651;22;20018;-89
2023/12/01 01:08:03;;;;;;;43.67;22.03;;;-0.30;99.90;;;;;;6289121;22;20064;-90
2023/12/01 01:10:29;;;;;;;43.27;21.47;;;-0.20;99.90;;;;;;6287372;22;20014;-88
2023/12/01 01:12:55;;;;;;;41.20;20.83;;;-0.30;99.90;;;;;;6313459;22;20030;-87
2023/12/01 01:15:21;;;;;;;47.60;22.23;;;-0.40;99.90;;;;;;6312491;22;20033;-87
2023/12/01 01:17:46;;;;;;;45.47;23.87;;;-0.40;99.90;;;;;;6313058;22;20025;-88
2023/12/01 01:20:12;;;;;;;46.60;22.07;;;-0.50;99.90;;;;;;6285972;22;20019;-88
2023/12/01 01:22:38;;;;;;;46.03;22.47;;;-0.60;99.90;;;;;;6287141;22;20098;-89
2023/12/01 01:25:07;;;;;;;41.33;21.23;;;-0.60;99.90;;;;;;6312672;22;20465;-86
2023/12/01 01:27:33;;;;;;;43.63;21.37;;;-0.60;99.90;;;;;;6312923;22;20015;-89
2023/12/01 01:29:59;;;;;;;45.00;23.07;;;-0.60;99.90;;;;;;6312960;22;20021;-87
2023/12/01 01:32:24;;;;;;;42.87;22.57;;;-0.70;99.90;;;;;;6312169;22;20030;-89
2023/12/01 01:34:50;;;;;;;47.33;23.60;;;-0.70;99.90;;;;;;6312959;22;20080;-89
2023/12/01 01:37:16;;;;;;;47.40;24.53;;;-0.70;99.90;;;;;;6312162;22;20092;-89
2023/12/01 01:39:42;;;;;;;48.80;24.63;;;-0.60;99.90;;;;;;6313086;22;20018;-92
2023/12/01 01:42:08;;;;;;;47.40;23.80;;;-0.60;99.90;;;;;;6285661;22;20038;-89
2023/12/01 01:44:34;;;;;;;49.03;23.73;;;-0.60;99.90;;;;;;6287207;22;20022;-89
2023/12/01 01:47:00;;;;;;;44.03;22.30;;;-0.70;99.90;;;;;;6286787;22;20025;-91
2023/12/01 01:49:26;;;;;;;46.90;23.50;;;-0.80;99.90;;;;;;6312314;22;20019;-88
2023/12/01 01:51:58;;;;;;;48.60;24.30;;;-0.80;99.90;;;;;;6286671;22;20482;-88
2023/12/01 01:54:24;;;;;;;52.10;23.85;;;-0.90;99.90;;;;;;6311375;22;20320;-88
2023/12/01 01:56:55;;;;;;;49.80;24.03;;;-0.90;99.90;;;;;;6312444;22;20061;-88
2023/12/01 01:59:21;;;;;;;47.80;24.37;;;-1.00;99.90;;;;;;6311517;22;20328;-87
2023/12/01 02:01:51;;;;;;;52.17;24.57;;;-1.00;99.90;;;;;;6285966;22;20049;-86
2023/12/01 02:04:17;;;;;;;45.53;22.83;;;-1.00;99.90;;;;;;6285572;22;20506;-88
2023/12/01 02:06:45;;;;;;;50.83;24.10;;;-1.00;99.90;;;;;;6311463;22;20472;-87
2023/12/01 02:09:13;;;;;;;48.43;23.83;;;-1.00;99.90;;;;;;6311673;22;20074;-88
2023/12/01 02:11:39;;;;;;;47.20;22.77;;;-1.00;99.90;;;;;;6311118;22;20021;-88
2023/12/01 02:14:05;;;;;;;47.40;22.67;;;-1.00;99.90;;;;;;6312655;22;20019;-85
2023/12/01 02:16:31;;;;;;;46.37;24.00;;;-1.00;99.90;;;;;;6312125;22;20067;-87
2023/12/01 02:18:57;;;;;;;43.07;23.03;;;-1.10;99.90;;;;;;6285864;22;20022;-89
2023/12/01 02:21:27;;;;;;;46.57;24.13;;;-1.10;99.90;;;;;;6312144;22;20054;-90
2023/12/01 02:23:53;;;;;;;47.27;23.70;;;-1.10;99.90;;;;;;6260088;22;20079;-90
2023/12/01 02:26:19;;;;;;;52.67;24.87;;;-1.10;99.90;;;;;;6339762;22;20030;-89
2023/12/01 02:28:46;;;;;;;51.13;24.47;;;-1.10;99.90;;;;;;6310748;22;20037;-87
2023/12/01 02:31:11;;;;;;;49.73;24.17;;;-1.10;99.90;;;;;;6286223;22;20021;-90
2023/12/01 02:33:38;;;;;;;52.30;24.83;;;-1.10;99.90;;;;;;6310410;22;20019;-88
2023/12/01 02:36:06;;;;;;;57.60;24.83;;;-1.10;99.90;;;;;;6285987;22;20040;-88
2023/12/01 02:38:33;;;;;;;51.40;23.63;;;-1.10;99.90;;;;;;6312430;22;20047;-89
2023/12/01 02:40:59;;;;;;;48.47;23.73;;;-1.10;99.90;;;;;;6311755;22;20025;-87
2023/12/01 02:43:24;;;;;;;55.23;25.10;;;-1.20;99.90;;;;;;6339928;22;21336;-88
2023/12/01 02:45:50;;;;;;;49.27;24.43;;;-1.30;99.90;;;;;;6285207;22;20019;-88
2023/12/01 02:48:16;;;;;;;53.90;25.13;;;-1.30;99.90;;;;;;6311742;22;20014;-89
2023/12/01 02:50:43;;;;;;;52.90;24.73;;;-1.30;99.90;;;;;;6285680;22;20168;-89
2023/12/01 02:53:08;;;;;;;55.93;25.27;;;-1.30;99.90;;;;;;6260056;22;20064;-89
2023/12/01 02:55:34;;;;;;;58.63;26.07;;;-1.30;99.90;;;;;;6285006;22;20261;-90
2023/12/01 02:58:00;;;;;;;61.77;27.57;;;-1.30;99.90;;;;;;6311480;22;20025;-88
2023/12/01 03:00:26;;;;;;;65.43;29.87;;;-1.30;99.90;;;;;;6311229;22;20076;-89
2023/12/01 03:02:52;;;;;;;57.43;26.83;;;-1.30;99.90;;;;;;6284661;22;20245;-89
2023/12/01 03:05:19;;;;;;;64.87;28.80;;;-1.30;99.90;;;;;;6311468;22;20042;-88
2023/12/01 03:07:46;;;;;;;63.80;28.37;;;-1.30;99.90;;;;;;6284732;22;20098;-90
2023/12/01 03:10:12;;;;;;;55.33;25.50;;;-1.40;99.90;;;;;;6314119;22;20067;-90
2023/12/01 03:12:40;;;;;;;59.77;26.37;;;-1.40;99.90;;;;;;6317494;22;20019;-89
2023/12/01 03:15:14;;;;;;;59.33;26.63;;;-1.40;99.90;;;;;;6311093;22;20805;-91
2023/12/01 03:17:40;;;;;;;54.00;25.57;;;-1.50;99.90;;;;;;6285657;22;20241;-90
2023/12/01 03:20:10;;;;;;;51.97;23.53;;;-1.50;99.90;;;;;;6310987;22;20458;-91
2023/12/01 03:22:38;;;;;;;48.30;22.63;;;-1.50;99.90;;;;;;6286220;22;20025;-90
2023/12/01 03:25:09;;;;;;;48.27;22.40;;;-1.60;99.90;;;;;;6285459;22;20253;-90
2023/12/01 03:27:37;;;;;;;48.97;22.95;;;-1.60;99.90;;;;;;6310905;22;20015;-89
2023/12/01 03:30:03;;;;;;;51.13;23.50;;;-1.60;99.90;;;;;;6284771;22;20023;-90
2023/12/01 03:32:28;;;;;;;51.17;22.90;;;-1.50;99.90;;;;;;6284674;22;20091;-85
2023/12/01 03:34:54;;;;;;;55.10;24.40;;;-1.50;99.90;;;;;;6285963;22;20026;-91
2023/12/01 03:37:20;;;;;;;54.40;23.43;;;-1.50;99.90;;;;;;6284499;22;20538;-89
2023/12/01 03:39:45;;;;;;;54.23;24.60;;;-1.50;99.90;;;;;;6311268;22;20056;-88
2023/12/01 03:42:11;;;;;;;58.87;25.77;;;-1.50;99.90;;;;;;6258614;22;20095;-88
2023/12/01 03:44:37;;;;;;;54.93;25.33;;;-1.40;99.90;;;;;;6286002;22;20031;-89
2023/12/01 03:47:03;;;;;;;53.30;23.90;;;-1.50;99.90;;;;;;6284703;22;20023;-89
2023/12/01 03:49:29;;;;;;;52.93;24.73;;;-1.50;99.90;;;;;;6310976;22;20249;-86
2023/12/01 03:51:55;;;;;;;51.83;22.93;;;-1.60;99.90;;;;;;6310837;22;20025;-86
2023/12/01 03:54:20;;;;;;;55.80;25.17;;;-1.60;99.90;;;;;;6310255;22;20018;-90
2023/12/01 03:56:46;;;;;;;53.03;23.80;;;-1.70;99.90;;;;;;6285467;22;20023;-86
2023/12/01 03:59:12;;;;;;;58.10;24.47;;;-1.70;99.90;;;;;;6285057;22;20019;-88
2023/12/01 04:01:38;;;;;;;54.30;24.53;;;-1.70;99.90;;;;;;6312150;22;20018;-89
2023/12/01 04:04:05;;;;;;;53.83;24.30;;;-1.70;99.90;;;;;;6285296;22;20420;-88
2023/12/01 04:06:32;;;;;;;49.07;22.93;;;-1.70;99.90;;;;;;6310376;22;20291;-88
2023/12/01 04:09:04;;;;;;;50.97;24.10;;;-1.70;99.90;;;;;;6284929;22;20336;-87
2023/12/01 04:11:30;;;;;;;52.53;22.73;;;-1.80;99.90;;;;;;6260494;22;20329;-86
2023/12/01 04:13:56;;;;;;;47.83;23.43;;;-1.80;99.90;;;;;;6259841;22;20018;-87
2023/12/01 04:16:24;;;;;;;53.17;23.70;;;-1.80;99.90;;;;;;6310252;22;20011;-87
2023/12/01 04:18:51;;;;;;;51.13;23.03;;;-1.80;99.90;;;;;;6286759;22;20047;-87
2023/12/01 04:21:17;;;;;;;49.50;23.13;;;-1.90;99.90;;;;;;6260006;22;20277;-88
2023/12/01 04:23:43;;;;;;;47.77;21.60;;;-1.90;99.90;;;;;;6311172;22;20653;-87
2023/12/01 04:26:11;;;;;;;46.40;21.67;;;-1.90;99.90;;;;;;6311006;22;20044;-87
2023/12/01 04:28:38;;;;;;;45.13;22.63;;;-1.90;99.90;;;;;;6285334;22;20046;-88
2023/12/01 04:31:05;;;;;;;45.50;20.50;;;-2.00;99.90;;;;;;6286122;22;20249;-88
2023/12/01 04:33:31;;;;;;;45.90;21.63;;;-2.10;99.90;;;;;;6310846;22;20241;-88
2023/12/01 04:35:57;;;;;;;44.07;20.33;;;-2.10;99.90;;;;;;6289095;22;20249;-87
2023/12/01 04:38:23;;;;;;;42.13;20.37;;;-2.20;99.90;;;;;;6262165;22;20271;-87
2023/12/01 04:40:50;;;;;;;46.10;20.73;;;-2.20;99.90;;;;;;6311913;22;20317;-87
2023/12/01 04:43:17;;;;;;;43.47;20.57;;;-2.20;99.90;;;;;;6287962;22;20023;-88
2023/12/01 04:45:43;;;;;;;43.63;19.67;;;-2.30;99.90;;;;;;6314762;22;20277;-88
2023/12/01 04:48:09;;;;;;;39.23;18.90;;;-2.30;99.90;;;;;;6315652;22;20253;-84
2023/12/01 04:50:40;;;;;;;36.03;18.80;;;-2.20;99.90;;;;;;6315101;22;20015;-87
2023/12/01 04:53:06;;;;;;;41.38;20.08;;;-2.30;99.90;;;;;;6317202;22;20040;-87
2023/12/01 04:55:32;;;;;;;36.43;18.20;;;-2.30;99.90;;;;;;6261329;22;20066;-88
2023/12/01 04:58:00;;;;;;;38.70;18.73;;;-2.30;99.90;;;;;;6286810;22;20512;-85
2023/12/01 05:00:26;;;;;;;37.97;18.60;;;-2.40;99.90;;;;;;6312888;22;20019;-88
2023/12/01 05:02:53;;;;;;;34.63;16.97;;;-2.40;99.90;;;;;;6312082;22;20249;-88
2023/12/01 05:05:22;;;;;;;33.60;17.37;;;-2.40;99.90;;;;;;6287316;22;20302;-89
2023/12/01 05:07:52;;;;;;;35.67;18.30;;;-2.50;99.90;;;;;;6286160;22;20766;-88
2023/12/01 05:10:22;;;;;;;36.10;17.90;;;-2.50;99.90;;;;;;6313200;22;20251;-88
2023/12/01 05:12:50;;;;;;;38.30;17.90;;;-2.50;99.90;;;;;;6312322;22;20249;-83
2023/12/01 05:15:21;;;;;;;33.33;17.30;;;-2.50;99.90;;;;;;6311663;22;20272;-88
2023/12/01 05:17:48;;;;;;;36.03;18.13;;;-2.50;99.90;;;;;;6312663;22;20253;-89
2023/12/01 05:20:16;;;;;;;36.87;18.70;;;-2.50;99.90;;;;;;6311309;22;20253;-87
2023/12/01 05:22:47;;;;;;;38.00;18.10;;;-2.50;99.90;;;;;;6312313;22;20261;-87
2023/12/01 05:25:14;;;;;;;37.43;17.63;;;-2.50;99.90;;;;;;6311462;22;20287;-87
2023/12/01 05:27:44;;;;;;;34.20;17.63;;;-2.40;99.90;;;;;;6312145;22;20284;-87
2023/12/01 05:30:15;;;;;;;37.03;19.27;;;-2.40;99.90;;;;;;6286970;22;20241;-88
2023/12/01 05:32:42;;;;;;;34.80;17.43;;;-2.40;99.90;;;;;;6283232;22;20026;-79
2023/12/01 05:35:12;;;;;;;36.30;17.67;;;-2.50;99.90;;;;;;6339582;22;20019;-87
2023/12/01 05:37:42;;;;;;;34.40;18.13;;;-2.50;99.90;;;;;;6310527;22;20628;-90
2023/12/01 05:40:09;;;;;;;35.10;17.37;;;-2.50;99.90;;;;;;6287379;22;20371;-79
2023/12/01 05:42:36;;;;;;;34.03;16.60;;;-2.50;99.90;;;;;;6259126;22;20252;-85
2023/12/01 05:45:04;;;;;;;35.13;17.87;;;-2.50;99.90;;;;;;6310898;22;20023;-87
2023/12/01 05:47:30;;;;;;;33.00;17.90;;;-2.40;99.90;;;;;;6309979;22;20260;-86
2023/12/01 05:49:55;;;;;;;32.73;16.77;;;-2.40;99.90;;;;;;6258903;22;20076;-87
2023/12/01 05:52:21;;;;;;;35.47;17.43;;;-2.40;99.90;;;;;;6310329;22;20068;-83
2023/12/01 05:54:49;;;;;;;33.47;17.53;;;-2.40;99.90;;;;;;6310742;22;20033;-94
2023/12/01 05:57:15;;;;;;;34.70;19.10;;;-2.40;99.90;;;;;;6289705;22;20026;-91
2023/12/01 05:59:42;;;;;;;31.83;17.33;;;-2.40;99.90;;;;;;6263867;22;20321;-90
2023/12/01 06:02:11;;;;;;;32.57;17.17;;;-2.40;99.90;;;;;;6286905;22;20037;-93
2023/12/01 06:04:39;;;;;;;30.20;16.73;;;-2.40;99.90;;;;;;6285175;22;20693;-94
2023/12/01 06:07:07;;;;;;;34.40;16.63;;;-2.40;99.90;;;;;;6283392;22;20272;-91
2023/12/01 06:09:35;;;;;;;32.80;17.37;;;-2.40;99.90;;;;;;6284142;22;20046;-92
2023/12/01 06:12:01;;;;;;;31.37;16.43;;;-2.40;99.90;;;;;;6258218;22;20061;-90
2023/12/01 06:14:27;;;;;;;30.17;16.23;;;-2.50;99.90;;;;;;6233093;22;20019;-87
2023/12/01 06:16:52;;;;;;;32.13;16.13;;;-2.50;99.90;;;;;;6283921;22;20033;-89
2023/12/01 06:19:18;;;;;;;32.07;16.27;;;-2.50;99.90;;;;;;6258908;22;20018;-90
2023/12/01 06:21:44;;;;;;;28.03;15.67;;;-2.60;99.90;;;;;;6285968;22;20435;-91
2023/12/01 06:24:10;;;;;;;29.27;15.10;;;-2.50;99.90;;;;;;6259912;22;20018;-90
2023/12/01 06:26:35;;;;;;;25.93;14.30;;;-2.60;99.90;;;;;;6236028;22;20019;-91
2023/12/01 06:29:01;;;;;;;27.80;13.90;;;-2.60;99.90;;;;;;6260289;22;20448;-90
2023/12/01 06:31:27;;;;;;;25.73;14.47;;;-2.70;99.90;;;;;;6262028;22;20026;-92
2023/12/01 06:33:53;;;;;;;29.50;16.03;;;-2.70;99.90;;;;;;6235549;22;20019;-91
2023/12/01 06:36:19;;;;;;;29.40;17.43;;;-2.70;99.90;;;;;;6260427;22;20042;-89
2023/12/01 06:38:44;;;;;;;31.77;17.43;;;-2.70;99.90;;;;;;6261046;22;20022;-90
2023/12/01 06:41:10;;;;;;;28.97;17.63;;;-2.70;99.90;;;;;;6260817;22;20023;-90
2023/12/01 06:43:36;;;;;;;31.50;17.60;;;-2.70;99.90;;;;;;6286600;22;20682;-92
2023/12/01 06:46:02;;;;;;;26.87;16.20;;;-2.80;99.90;;;;;;6234669;22;20293;-89
2023/12/01 06:48:27;;;;;;;28.83;16.10;;;-2.80;99.90;;;;;;6260845;22;20097;-89
2023/12/01 06:50:53;;;;;;;30.00;16.40;;;-2.80;99.90;;;;;;6260153;22;20638;-90
2023/12/01 06:53:19;;;;;;;28.80;16.63;;;-2.90;99.90;;;;;;6260313;22;20023;-85
2023/12/01 06:55:44;;;;;;;31.30;17.03;;;-2.90;99.90;;;;;;6260023;22;20119;-86
2023/12/01 06:58:10;;;;;;;27.70;15.00;;;-2.90;99.90;;;;;;6260213;22;20052;-87
2023/12/01 07:00:37;;;;;;;26.10;15.43;;;-3.00;99.90;;;;;;6260284;22;20018;-86
2023/12/01 07:03:04;;;;;;;28.13;15.13;;;-3.00;99.90;;;;;;6310258;22;20078;-87
2023/12/01 07:05:32;;;;;;;28.57;15.67;;;-3.00;99.90;;;;;;6286236;22;20359;-86
2023/12/01 07:08:00;;;;;;;28.77;15.53;;;-3.00;99.90;;;;;;6284945;22;20015;-87
2023/12/01 07:10:26;;;;;;;27.73;15.70;;;-3.00;99.90;;;;;;6285698;22;20249;-87
2023/12/01 07:12:52;;;;;;;27.73;15.60;;;-3.00;99.90;;;;;;6311839;22;20256;-86
2023/12/01 07:15:21;;;;;;;28.50;15.77;;;-3.00;99.90;;;;;;6259985;22;20237;-86
2023/12/01 07:17:52;;;;;;;29.30;15.33;;;-3.00;99.90;;;;;;6311707;22;20487;-86
2023/12/01 07:20:18;;;;;;;28.77;15.67;;;-3.00;99.90;;;;;;6310659;22;20265;-86
2023/12/01 07:22:45;;;;;;;28.97;16.13;;;-3.00;99.90;;;;;;6311832;22;20356;-85
2023/12/01 07:25:21;;;;;;;31.70;15.97;;;-3.00;99.90;;;;;;6284903;22;20245;-85
2023/12/01 07:27:48;;;;;;;32.60;16.60;;;-3.00;99.90;;;;;;6310114;22;20308;-86
2023/12/01 07:30:16;;;;;;;29.23;15.40;;;-3.00;99.90;;;;;;6311612;22;20256;-86
2023/12/01 07:32:44;;;;;;;29.23;15.20;;;-3.00;99.90;;;;;;6311289;22;20327;-86
2023/12/01 07:35:10;;;;;;;26.83;14.77;;;-3.00;99.90;;;;;;6285874;22;20771;-85
2023/12/01 07:37:37;;;;;;;27.53;14.80;;;-3.10;99.90;;;;;;6258914;22;20324;-86
2023/12/01 07:40:06;;;;;;;29.27;15.07;;;-3.20;99.90;;;;;;6285609;22;20245;-87
2023/12/01 07:42:32;;;;;;;27.47;14.77;;;-3.20;99.90;;;;;;6285376;22;20312;-86
2023/12/01 07:44:58;;;;;;;29.53;15.83;;;-3.20;99.90;;;;;;6311168;22;20249;-86
2023/12/01 07:47:24;;;;;;;29.43;15.70;;;-3.20;99.90;;;;;;6258458;22;20743;-86
2023/12/01 07:49:50;;;;;;;27.37;15.40;;;-3.20;99.90;;;;;;6274835;22;20042;-85
2023/12/01 07:52:17;;;;;;;30.40;15.37;;;-3.20;99.90;;;;;;6302637;22;20054;-86
2023/12/01 07:54:42;;;;;;;29.77;14.80;;;-3.20;99.90;;;;;;6225625;22;20104;-85
2023/12/01 07:57:09;;;;;;;28.80;14.90;;;-3.20;99.90;;;;;;6302890;22;20260;-84
2023/12/01 07:59:36;;;;;;;33.13;15.27;;;-3.20;99.90;;;;;;6301437;22;20018;-85
2023/12/01 08:02:02;;;;;;;31.83;15.43;;;-3.10;99.90;;;;;;6276830;22;20331;-84
2023/12/01 08:04:28;;;;;;;30.63;16.47;;;-3.00;99.90;;;;;;6328694;22;20245;-84
2023/12/01 08:06:55;;;;;;;29.93;15.23;;;-3.00;99.90;;;;;;6299525;22;20323;-83
2023/12/01 08:09:24;;;;;;;31.10;15.43;;;-3.00;99.90;;;;;;6300110;22;20870;-84
2023/12/01 08:11:50;;;;;;;31.80;15.20;;;-2.90;99.90;;;;;;6248749;22;20267;-83
2023/12/01 08:14:16;;;;;;;29.57;16.17;;;-2.90;99.90;;;;;;6276474;22;20260;-83
2023/12/01 08:16:44;;;;;;;32.30;15.53;;;-2.90;99.90;;;;;;6250111;22;20072;-84
2023/12/01 08:19:10;;;;;;;32.13;16.97;;;-2.80;99.90;;;;;;6301991;22;20018;-84
2023/12/01 08:21:36;;;;;;;30.37;15.73;;;-2.70;99.90;;;;;;6251147;22;20019;-84
2023/12/01 08:24:04;;;;;;;31.73;15.53;;;-2.70;99.90;;;;;;6300874;22;20484;-85
2023/12/01 08:26:31;;;;;;;30.17;16.33;;;-2.70;99.90;;;;;;6302377;22;20305;-85
2023/12/01 08:28:57;;;;;;;31.63;16.13;;;-2.60;99.90;;;;;;6303013;22;20253;-85
2023/12/01 08:31:24;;;;;;;32.77;17.23;;;-2.60;99.90;;;;;;6278717;22;20249;-84
2023/12/01 08:33:50;;;;;;;33.57;17.87;;;-2.50;99.90;;;;;;6281103;22;20252;-84
2023/12/01 08:36:17;;;;;;;35.47;16.83;;;-2.40;99.90;;;;;;6304278;22;20245;-84
2023/12/01 08:38:43;;;;;;;32.10;16.47;;;-2.20;99.90;;;;;;6303416;22;20302;-85
2023/12/01 08:41:09;;;;;;;29.43;15.33;;;-2.20;99.90;;;;;;6277269;22;20015;-84
2023/12/01 08:43:35;;;;;;;32.80;16.37;;;-2.10;99.90;;;;;;6303284;22;20049;-84
2023/12/01 08:46:00;;;;;;;31.63;15.97;;;-2.00;99.90;;;;;;6302818;22;20019;-85
2023/12/01 08:48:26;;;;;;;33.60;16.93;;;-1.90;99.90;;;;;;6304299;22;20018;-84
2023/12/01 08:50:52;;;;;;;32.03;16.20;;;-1.80;99.90;;;;;;6277001;22;20532;-84
2023/12/01 08:53:17;;;;;;;27.60;15.57;;;-1.70;99.90;;;;;;6226864;22;20688;-84
2023/12/01 08:55:46;;;;;;;29.30;15.73;;;-1.70;99.90;;;;;;6253220;22;20451;-84
2023/12/01 08:58:12;;;;;;;30.50;15.90;;;-1.60;99.90;;;;;;6302353;22;20271;-83
2023/12/01 09:00:38;;;;;;;31.73;16.93;;;-1.70;99.90;;;;;;6278014;22;20478;-84
2023/12/01 09:03:04;;;;;;;32.20;16.80;;;-1.50;99.90;;;;;;6277284;22;20029;-84
2023/12/01 09:05:32;;;;;;;36.03;15.90;;;-1.60;99.90;;;;;;6303527;22;20427;-83
2023/12/01 09:07:58;;;;;;;30.27;15.77;;;-1.60;99.90;;;;;;6277522;22;20043;-83
2023/12/01 09:10:23;;;;;;;31.73;17.77;;;-1.60;99.90;;;;;;6301931;22;20019;-83
2023/12/01 09:12:50;;;;;;;32.50;17.13;;;-1.50;99.90;;;;;;6305329;22;20014;-82
2023/12/01 09:15:16;;;;;;;31.13;16.90;;;-1.50;99.90;;;;;;6279433;22;20018;-82
2023/12/01 09:17:42;;;;;;;33.53;17.70;;;-1.50;99.90;;;;;;6302677;22;20861;-83
2023/12/01 09:20:11;;;;;;;28.90;16.10;;;-1.50;99.90;;;;;;6301845;22;20065;-87
2023/12/01 09:22:37;;;;;;;30.00;15.73;;;-1.30;99.90;;;;;;6278060;22;20315;-85
2023/12/01 09:25:03;;;;;;;32.20;17.10;;;-1.20;99.90;;;;;;6277294;22;20307;-85
2023/12/01 09:27:29;;;;;;;30.53;16.27;;;-1.30;99.90;;;;;;6302456;22;20023;-83
2023/12/01 09:29:55;;;;;;;32.53;16.83;;;-1.30;99.90;;;;;;6277271;22;21250;-84
2023/12/01 09:32:21;;;;;;;30.43;16.30;;;-1.30;99.90;;;;;;6302095;22;20074;-85
2023/12/01 09:34:47;;;;;;;33.27;16.83;;;-1.30;99.90;;;;;;6304383;22;20390;-84
2023/12/01 09:37:13;;;;;;;32.67;17.03;;;-1.30;99.90;;;;;;6277600;22;20022;-84
2023/12/01 09:39:39;;;;;;;30.27;16.00;;;-1.30;99.90;;;;;;6275595;22;20260;-85
2023/12/01 09:42:06;;;;;;;34.23;17.20;;;-1.30;99.90;;;;;;6275709;22;20022;-84
2023/12/01 09:44:35;;;;;;;34.10;18.50;;;-1.30;99.90;;;;;;6302304;22;20025;-86
2023/12/01 09:47:02;;;;;;;31.40;17.00;;;-1.20;99.90;;;;;;6276011;22;20269;-84
2023/12/01 09:49:33;;;;;;;33.63;19.40;;;-1.20;99.90;;;;;;6276691;22;20379;-86
2023/12/01 09:52:02;;;;;;;31.20;18.17;;;-1.10;99.90;;;;;;6303168;22;20050;-86
2023/12/01 09:54:29;;;;;;;70.93;40.37;;;-1.10;99.90;;;;;;6302277;22;20030;-85
2023/12/01 09:56:57;;;;;;;32.20;17.70;;;-1.10;99.90;;;;;;6303717;22;20034;-84
2023/12/01 09:59:23;;;;;;;33.37;19.37;;;-1.00;99.90;;;;;;6276479;22;20019;-84
2023/12/01 10:01:51;;;;;;;38.63;21.80;;;-1.00;99.90;;;;;;6275990;22;20468;-83
2023/12/01 10:04:17;;;;;;;33.67;18.30;;;-0.90;99.90;;;;;;6302713;22;20025;-85
2023/12/01 10:06:43;;;;;;;32.53;17.70;;;-0.80;99.90;;;;;;6276646;22;20089;-85
2023/12/01 10:09:10;;;;;;;45.00;30.87;;;-0.70;99.90;;;;;;6302604;22;20044;-84
2023/12/01 10:11:37;;;;;;;33.73;19.73;;;-0.70;99.90;;;;;;6276848;22;20057;-85
2023/12/01 10:14:06;;;;;;;35.23;21.23;;;-0.60;99.90;;;;;;6277230;22;20023;-85
2023/12/01 10:16:36;;;;;;;46.83;30.40;;;-0.60;99.90;;;;;;6277157;22;20073;-84
2023/12/01 10:19:07;;;;;;;29.37;16.77;;;-0.60;99.90;;;;;;6303019;22;20023;-84
2023/12/01 10:21:43;;;;;;;30.00;17.90;;;-0.50;99.90;;;;;;6302652;22;20022;-84
2023/12/01 10:24:27;;;;;;;30.93;17.60;;;-0.50;99.90;;;;;;6300268;22;20021;-85
2023/12/01 10:26:55;;;;;;;29.10;17.30;;;-0.40;99.90;;;;;;6331542;22;20018;-85
2023/12/01 10:29:33;;;;;;;31.43;17.80;;;-0.40;99.90;;;;;;6276399;22;20593;-85
2023/12/01 10:32:02;;;;;;;27.80;16.23;;;-0.40;99.90;;;;;;6277586;22;20049;-84
2023/12/01 10:34:28;;;;;;;29.50;17.00;;;-0.30;99.90;;;;;;6279039;22;20014;-86
2023/12/01 10:36:55;;;;;;;26.37;14.87;;;-0.30;99.90;;;;;;6275672;22;20080;-84
2023/12/01 10:39:29;;;;;;;27.07;15.63;;;-0.30;99.90;;;;;;6277158;22;20100;-84
2023/12/01 10:41:57;;;;;;;25.87;14.77;;;-0.30;99.90;;;;;;6251962;22;20080;-85
2023/12/01 10:44:24;;;;;;;27.10;16.20;;;-0.30;99.90;;;;;;6303609;22;20018;-86
2023/12/01 10:46:52;;;;;;;26.23;15.30;;;-0.30;99.90;;;;;;6276391;22;20102;-85
2023/12/01 10:49:19;;;;;;;27.37;15.87;;;-0.30;99.90;;;;;;6275972;22;20019;-85
2023/12/01 10:51:46;;;;;;;26.00;15.33;;;-0.30;99.90;;;;;;6276529;22;20019;-86
2023/12/01 10:54:14;;;;;;;28.17;15.50;;;-0.20;99.90;;;;;;6276589;22;20029;-85
2023/12/01 10:57:08;;;;;;;28.40;15.80;;;-0.20;99.90;;;;;;6302919;22;20023;-86
2023/12/01 10:59:37;;;;;;;24.17;15.03;;;-0.20;99.90;;;;;;6302946;22;20035;-86
2023/12/01 11:02:05;;;;;;;24.60;15.33;;;-0.30;99.90;;;;;;6302795;22;20018;-85
2023/12/01 11:04:33;;;;;;;29.03;16.20;;;-0.30;99.90;;;;;;6302714;22;20026;-86
2023/12/01 11:07:27;;;;;;;29.80;17.27;;;-0.30;99.90;;;;;;6302055;22;20498;-85
2023/12/01 11:10:02;;;;;;;29.53;17.73;;;-0.20;99.90;;;;;;6276941;22;20023;-86
2023/12/01 11:12:38;;;;;;;31.60;18.90;;;-0.20;99.90;;;;;;6276813;22;20026;-86
2023/12/01 11:15:12;;;;;;;27.67;15.53;;;-0.10;99.90;;;;;;6276124;22;20022;-87
2023/12/01 11:17:38;;;;;;;26.73;15.53;;;-0.10;99.90;;;;;;6276967;22;20026;-86
2023/12/01 11:20:30;;;;;;;29.97;14.57;;;-0.10;99.90;;;;;;6303029;22;20022;-86
2023/12/01 11:23:09;;;;;;;29.98;16.98;;;-0.10;99.90;;;;;;6284811;22;20026;-84
2023/12/01 11:25:50;;;;;;;29.53;17.03;;;-0.20;99.90;;;;;;6310582;22;20018;-86
2023/12/01 11:28:23;;;;;;;28.95;16.33;;;-0.30;99.90;;;;;;6236004;22;20539;-84
2023/12/01 11:31:08;;;;;;;29.30;17.50;;;-0.40;99.90;;;;;;6309880;22;20058;-83
2023/12/01 11:33:50;;;;;;;29.17;16.40;;;-0.30;99.90;;;;;;6285143;22;20023;-85
2023/12/01 11:36:23;;;;;;;29.43;16.33;;;-0.40;99.90;;;;;;6285268;22;20663;-86
2023/12/01 11:41:49;;;;;;;32.50;17.17;;;-0.30;99.90;;;;;;6309432;22;20374;-86
2023/12/01 11:44:15;;;;;;;32.03;17.97;;;-0.30;99.90;;;;;;6284594;22;20056;-86
2023/12/01 11:46:41;;;;;;;30.57;17.87;;;-0.30;99.90;;;;;;6308306;22;20018;-86
2023/12/01 11:49:09;;;;;;;31.17;17.97;;;-0.40;99.90;;;;;;6310012;22;20108;-86
2023/12/01 11:51:34;;;;;;;24.97;16.07;;;-0.30;99.90;;;;;;6259522;22;20046;-86
2023/12/01 11:54:01;;;;;;;28.90;15.83;;;-0.30;99.90;;;;;;6309958;22;20103;-86
2023/12/01 11:56:34;;;;;;;25.67;15.60;;;-0.30;99.90;;;;;;6285345;22;20025;-86
2023/12/01 11:59:00;;;;;;;27.10;16.57;;;-0.30;99.90;;;;;;6283863;22;20030;-86
2023/12/01 12:01:26;;;;;;;31.37;17.47;;;-0.30;99.90;;;;;;6284779;22;20015;-86
2023/12/01 12:03:56;;;;;;;27.43;16.87;;;-0.40;99.90;;;;;;6257352;22;20027;-85
2023/12/01 12:06:24;;;;;;;28.37;17.57;;;-0.40;99.90;;;;;;6308422;22;20030;-85
2023/12/01 12:08:53;;;;;;;25.73;15.50;;;-0.40;99.90;;;;;;6258599;22;20029;-86
2023/12/01 12:11:20;;;;;;;24.10;15.23;;;-0.30;99.90;;;;;;6309080;22;20046;-85
2023/12/01 12:13:57;;;;;;;24.27;15.13;;;-0.20;99.90;;;;;;6284763;22;20265;-84
2023/12/01 12:16:24;;;;;;;26.47;15.83;;;-0.20;99.90;;;;;;6258504;22;20046;-85
2023/12/01 12:18:50;;;;;;;27.00;15.87;;;-0.30;99.90;;;;;;6309361;22;20025;-85
2023/12/01 12:21:16;;;;;;;25.87;15.87;;;-0.30;99.90;;;;;;6308928;22;20280;-85
2023/12/01 12:23:42;;;;;;;29.30;17.77;;;-0.30;99.90;;;;;;6283482;22;20068;-87
2023/12/01 12:26:19;;;;;;;29.10;18.37;;;-0.30;99.90;;;;;;6309301;22;20046;-85
2023/12/01 12:29:00;;;;;;;29.70;18.57;;;-0.30;99.90;;;;;;6282429;22;20463;-86
2023/12/01 12:31:29;;;;;;;31.87;20.00;;;-0.30;99.90;;;;;;6308677;22;20322;-86
2023/12/01 12:33:58;;;;;;;30.10;17.70;;;-0.20;99.90;;;;;;6308853;22;20022;-85